Portada
METAR-TAF:

METAR-TAF

Aeroports :

Fairfield Municipal Airport

Fairfield, Iowa, Estats Units d'Amèrica

latitud: 41-03N, longitud: 091-59W, altitud: 244 m

Observació

L'informe es va fer fa 1 hora i 36 minuts, a les 16:55 UTC
Vent 7 kt del Sud-Oest
Temperatura 26°C
Humitat 61%
Pressió 1012 hPa
Visibilitat: 16.1 km
Cel clar

METAR: KFFL 251655Z AUTO 22007KT 10SM CLR 26/18 A2989 RMK AO2 PWINO

Hora: 13:31 (18:31 UTC)


TAF: manca

Observacions i pronòstics meteorològics de més de 4000 aeroports (METAR i TAF).

Les estacions disponibles són els punts grocs i vermells al mapa.

Posi el ratolí al punt desitjat per veure el nom de l'estació.

Feu clic per veure les observacions i els pronòstics meteorològics.

Per canviar el mapa: feu clic els botons verds amb una creu de color negre per apropar; al botó verd amb un guió per allunyar la imatge; o en les fletxes verdes per a mapes adjacents.


METAR-TAF: